Time;durP1;ratioP1;P1;durP2;ratioP2;P2;SDS_P1;SDS_P2;PMS_P1;PMS_P2;Temp;Humidity;BMP_temperature;BMP_pressure;BME280_temperature;BME280_humidity;BME280_pressure;Samples;Min_cycle;Max_cycle;Signal;HPM_P1;HPM_P2
2021/12/18 00:00:22;;;;;;;3.25;0.47;;;5.60;99.90;;;;;;5062131;28;20043;-81
2021/12/18 00:05:23;;;;;;;0.93;0.32;;;5.60;99.90;;;;;;1486556;26;20041;-80
2021/12/18 00:07:49;;;;;;;1.65;0.43;;;5.60;99.90;;;;;;5044098;28;20031;-83
2021/12/18 00:10:19;;;;;;;3.10;0.52;;;5.60;99.90;;;;;;5031151;28;20087;-80
2021/12/18 00:12:49;;;;;;;1.63;0.50;;;5.70;99.90;;;;;;5034451;28;20037;-80
2021/12/18 00:15:15;;;;;;;0.22;0.20;;;5.60;99.90;;;;;;5043566;28;20033;-80
2021/12/18 00:17:41;;;;;;;1.98;0.85;;;5.60;99.90;;;;;;5025839;28;20037;-80
2021/12/18 00:20:07;;;;;;;1.38;0.60;;;5.60;99.90;;;;;;5043976;28;20026;-81
2021/12/18 00:22:33;;;;;;;1.75;0.60;;;5.70;99.90;;;;;;5052670;28;20028;-80
2021/12/18 00:24:59;;;;;;;1.13;0.60;;;5.60;99.90;;;;;;5045747;28;20967;-80
2021/12/18 00:27:25;;;;;;;0.88;0.57;;;5.70;99.90;;;;;;5041811;28;20033;-80
2021/12/18 00:29:50;;;;;;;0.80;0.40;;;5.70;99.90;;;;;;5057048;28;20029;-81
2021/12/18 00:32:16;;;;;;;1.25;0.60;;;5.60;99.90;;;;;;5043447;28;20467;-80
2021/12/18 00:34:42;;;;;;;1.27;0.20;;;5.60;99.90;;;;;;5044076;28;20037;-80
2021/12/18 00:37:08;;;;;;;0.90;0.55;;;5.60;99.90;;;;;;5035093;28;20376;-80
2021/12/18 00:39:37;;;;;;;1.13;0.50;;;5.60;99.90;;;;;;5041387;28;20039;-82
2021/12/18 00:44:47;;;;;;;0.93;0.30;;;5.60;99.90;;;;;;5037725;28;20060;-80
2021/12/18 00:47:13;;;;;;;2.03;0.50;;;5.50;99.90;;;;;;5041358;28;20053;-81
2021/12/18 00:49:38;;;;;;;1.25;0.60;;;5.50;99.90;;;;;;5033710;28;20049;-83
2021/12/18 00:52:06;;;;;;;0.28;0.10;;;5.60;99.90;;;;;;5025035;28;20037;-82
2021/12/18 00:54:34;;;;;;;0.40;0.25;;;5.60;99.90;;;;;;5049202;28;20028;-82
2021/12/18 00:57:00;;;;;;;0.77;0.40;;;5.60;99.90;;;;;;5033081;28;20061;-82
2021/12/18 00:59:28;;;;;;;0.77;0.40;;;5.60;99.90;;;;;;5029715;28;20426;-83
2021/12/18 01:01:54;;;;;;;1.25;0.82;;;5.60;99.90;;;;;;5035421;28;20129;-82
2021/12/18 01:04:20;;;;;;;1.27;0.50;;;5.60;99.90;;;;;;5001579;28;20029;-81
2021/12/18 01:06:48;;;;;;;3.38;0.60;;;5.60;99.90;;;;;;5026130;28;20046;-81
2021/12/18 01:09:16;;;;;;;0.93;0.57;;;5.70;99.90;;;;;;5027538;28;20439;-83
2021/12/18 01:11:46;;;;;;;1.38;0.40;;;5.60;99.90;;;;;;5034330;28;20113;-83
2021/12/18 01:14:30;;;;;;;0.73;0.47;;;5.60;99.90;;;;;;5044631;28;20040;-82
2021/12/18 01:25:04;;;;;;;0.45;0.38;;;5.60;99.90;;;;;;5034999;28;20067;-81
2021/12/18 01:27:30;;;;;;;1.27;0.43;;;5.60;99.90;;;;;;5034178;28;20381;-81
2021/12/18 01:29:56;;;;;;;1.00;0.52;;;5.60;99.90;;;;;;5039641;28;20091;-83
2021/12/18 01:32:23;;;;;;;2.22;0.80;;;5.60;99.90;;;;;;5042536;28;20033;-83
2021/12/18 01:34:49;;;;;;;1.33;0.45;;;5.60;99.90;;;;;;5035405;28;20061;-82
2021/12/18 01:37:15;;;;;;;0.60;0.43;;;5.60;99.90;;;;;;5042953;28;20530;-83
2021/12/18 01:39:41;;;;;;;2.40;0.50;;;5.50;99.90;;;;;;5042260;28;20040;-84
2021/12/18 01:52:40;;;;;;;1.25;0.40;;;5.70;99.90;;;;;;5026056;28;20086;-83
2021/12/18 01:55:08;;;;;;;0.85;0.38;;;5.70;99.90;;;;;;5030519;28;20033;-83
2021/12/18 01:57:34;;;;;;;1.45;0.77;;;5.70;99.90;;;;;;5004396;28;20040;-81
2021/12/18 01:59:59;;;;;;;1.75;0.73;;;5.70;99.90;;;;;;5013388;28;20041;-83
2021/12/18 02:02:26;;;;;;;1.00;0.40;;;5.60;99.90;;;;;;5019160;28;20059;-81
2021/12/18 02:04:54;;;;;;;1.60;0.57;;;5.60;99.90;;;;;;5027316;28;20033;-82
2021/12/18 02:07:19;;;;;;;1.05;0.47;;;5.60;99.90;;;;;;5009491;28;20095;-83
2021/12/18 02:10:08;;;;;;;2.28;1.27;;;5.60;99.90;;;;;;5017641;28;20276;-83
2021/12/18 02:12:50;;;;;;;1.33;0.75;;;5.60;99.90;;;;;;5025424;28;20398;-81
2021/12/18 02:20:50;;;;;;;1.25;0.40;;;5.60;99.90;;;;;;5026853;28;20087;-81
2021/12/18 02:23:19;;;;;;;1.13;0.40;;;5.60;99.90;;;;;;5022153;28;20445;-81
2021/12/18 02:25:48;;;;;;;0.90;0.43;;;5.60;99.90;;;;;;5028570;28;20041;-82
2021/12/18 02:28:19;;;;;;;0.65;0.45;;;5.60;99.90;;;;;;5023569;28;20447;-81
2021/12/18 02:30:49;;;;;;;0.52;0.35;;;5.60;99.90;;;;;;5031202;28;20132;-83
2021/12/18 02:33:15;;;;;;;1.27;0.47;;;5.60;99.90;;;;;;5049390;28;20036;-82
2021/12/18 02:35:53;;;;;;;0.28;0.20;;;5.60;99.90;;;;;;5038558;28;20045;-83
2021/12/18 02:43:59;;;;;;;1.05;0.55;;;5.60;99.90;;;;;;5031287;28;20160;-84
2021/12/18 02:46:25;;;;;;;1.25;0.60;;;5.60;99.90;;;;;;5032623;28;20029;-83
2021/12/18 02:48:53;;;;;;;0.73;0.30;;;5.60;99.90;;;;;;5041677;28;20047;-84
2021/12/18 02:51:19;;;;;;;;;;;5.60;99.90;;;;;;5039854;28;20491;-83
2021/12/18 02:53:52;;;;;;;0.68;0.50;;;5.60;99.90;;;;;;5031013;28;19920;-82
2021/12/18 02:56:23;;;;;;;0.90;0.50;;;5.50;99.90;;;;;;5029691;28;20034;-83
2021/12/18 02:58:51;;;;;;;0.45;0.32;;;5.60;99.90;;;;;;5048309;28;20496;-82
2021/12/18 03:01:24;;;;;;;;;;;5.60;99.90;;;;;;5041294;28;20041;-86
2021/12/18 03:03:51;;;;;;;0.50;0.38;;;5.60;99.90;;;;;;5048843;28;19944;-83
2021/12/18 03:06:40;;;;;;;1.00;0.50;;;5.60;99.90;;;;;;5029528;28;20068;-83
2021/12/18 03:20:59;;;;;;;0.57;0.20;;;5.70;99.90;;;;;;5034997;28;20048;-83
2021/12/18 03:25:29;;;;;;;0.30;0.20;;;5.70;99.90;;;;;;5030941;28;20167;-84
2021/12/18 03:27:59;;;;;;;1.10;0.50;;;5.70;99.90;;;;;;5040573;28;20067;-82
2021/12/18 03:30:24;;;;;;;1.13;0.77;;;5.60;99.90;;;;;;5022479;28;20049;-81
2021/12/18 03:32:50;;;;;;;0.10;0.10;;;5.70;99.90;;;;;;5034205;28;20094;-83
2021/12/18 03:35:17;;;;;;;0.40;0.30;;;5.70;99.90;;;;;;5031347;28;21915;-82
2021/12/18 03:37:43;;;;;;;0.90;0.55;;;5.70;99.90;;;;;;5032091;28;20040;-83
2021/12/18 03:40:13;;;;;;;0.43;0.17;;;5.60;99.90;;;;;;5031721;28;20447;-82
2021/12/18 03:42:39;;;;;;;0.63;0.47;;;5.70;99.90;;;;;;5039093;28;20395;-83
2021/12/18 03:45:07;;;;;;;0.40;0.30;;;5.70;99.90;;;;;;5031869;28;20041;-83
2021/12/18 03:47:33;;;;;;;0.98;0.38;;;5.70;99.90;;;;;;5039004;28;20033;-83
2021/12/18 03:49:58;;;;;;;0.57;0.28;;;5.60;99.90;;;;;;5031431;28;20040;-83
2021/12/18 03:52:24;;;;;;;1.05;0.50;;;5.70;99.90;;;;;;5031155;28;20033;-83
2021/12/18 03:54:50;;;;;;;1.13;0.68;;;5.70;99.90;;;;;;5032272;28;20091;-83
2021/12/18 03:57:15;;;;;;;0.30;0.28;;;5.80;99.90;;;;;;5029973;28;20037;-83
2021/12/18 03:59:41;;;;;;;0.88;0.30;;;5.70;99.90;;;;;;5030182;28;20083;-81
2021/12/18 04:02:07;;;;;;;0.57;0.35;;;5.70;99.90;;;;;;5038864;28;21077;-82
2021/12/18 04:04:32;;;;;;;0.43;0.28;;;5.70;99.90;;;;;;5032936;28;20037;-83
2021/12/18 04:06:59;;;;;;;1.40;0.80;;;5.70;99.90;;;;;;5029700;28;20049;-83
2021/12/18 04:09:25;;;;;;;0.40;0.30;;;5.70;99.90;;;;;;5038860;28;20624;-82
2021/12/18 04:11:51;;;;;;;1.15;0.38;;;5.70;99.90;;;;;;5028765;28;20033;-83
2021/12/18 04:14:17;;;;;;;0.85;0.40;;;5.70;99.90;;;;;;5033758;28;20531;-83
2021/12/18 04:16:46;;;;;;;0.70;0.43;;;5.60;99.90;;;;;;5037623;28;20052;-82
2021/12/18 04:19:12;;;;;;;0.47;0.25;;;5.70;99.90;;;;;;5038294;28;20124;-83
2021/12/18 04:21:38;;;;;;;1.40;0.63;;;5.70;99.90;;;;;;5031033;28;20117;-83
2021/12/18 04:24:04;;;;;;;0.47;0.28;;;5.70;99.90;;;;;;5034793;28;20057;-82
2021/12/18 04:26:31;;;;;;;1.25;0.65;;;5.60;99.90;;;;;;5027406;28;20059;-82
2021/12/18 04:28:57;;;;;;;0.90;0.57;;;5.70;99.90;;;;;;5029145;28;20061;-83
2021/12/18 04:31:23;;;;;;;0.63;0.30;;;5.70;99.90;;;;;;5037454;28;20064;-82
2021/12/18 04:33:48;;;;;;;0.90;0.43;;;5.70;99.90;;;;;;5032115;28;20045;-84
2021/12/18 04:36:14;;;;;;;1.95;0.35;;;5.70;99.90;;;;;;5031129;28;20430;-83
2021/12/18 04:38:40;;;;;;;0.82;0.30;;;5.70;99.90;;;;;;5030076;28;20479;-83
2021/12/18 04:41:06;;;;;;;0.35;0.22;;;5.70;99.90;;;;;;5037065;28;20029;-84
2021/12/18 04:43:32;;;;;;;0.82;0.40;;;5.70;99.90;;;;;;5032043;28;20048;-82
2021/12/18 04:45:57;;;;;;;0.85;0.45;;;5.70;99.90;;;;;;5032509;28;20057;-83
2021/12/18 04:48:23;;;;;;;0.52;0.20;;;5.80;99.90;;;;;;5044281;28;20494;-85
2021/12/18 04:50:49;;;;;;;0.65;0.25;;;5.90;99.90;;;;;;5038804;28;20122;-84
2021/12/18 04:53:14;;;;;;;0.73;0.45;;;5.90;99.90;;;;;;5033316;28;20033;-83
2021/12/18 04:55:40;;;;;;;0.93;0.45;;;5.90;99.90;;;;;;5041424;28;20136;-82
2021/12/18 04:58:06;;;;;;;1.25;0.60;;;5.90;99.90;;;;;;5038904;28;20446;-82
2021/12/18 05:00:39;;;;;;;0.85;0.50;;;6.00;99.90;;;;;;5044423;28;20053;-82
2021/12/18 05:03:08;;;;;;;1.55;0.45;;;6.00;99.90;;;;;;5040392;28;20078;-81
2021/12/18 05:05:34;;;;;;;0.65;0.40;;;5.90;99.90;;;;;;5049589;28;20037;-82
2021/12/18 05:08:04;;;;;;;0.55;0.30;;;5.90;99.90;;;;;;5044065;28;20032;-82
2021/12/18 05:10:30;;;;;;;1.50;0.40;;;6.00;99.90;;;;;;5035843;28;20484;-82
2021/12/18 05:12:56;;;;;;;1.67;0.73;;;6.00;99.90;;;;;;5046295;28;20404;-82
2021/12/18 05:15:21;;;;;;;0.57;0.30;;;5.90;99.90;;;;;;5035582;28;20029;-82
2021/12/18 05:17:47;;;;;;;0.65;0.30;;;6.00;99.90;;;;;;5045901;28;20380;-81
2021/12/18 05:20:14;;;;;;;0.98;0.52;;;5.90;99.90;;;;;;5038065;28;20976;-82
2021/12/18 05:22:40;;;;;;;0.50;0.30;;;6.00;99.90;;;;;;5042598;28;20033;-83
2021/12/18 05:25:06;;;;;;;0.40;0.40;;;6.00;99.90;;;;;;5037232;28;20037;-81
2021/12/18 05:27:33;;;;;;;0.75;0.32;;;5.90;99.90;;;;;;5036484;28;20524;-81
2021/12/18 05:29:59;;;;;;;1.30;0.75;;;6.00;99.90;;;;;;5046181;28;20465;-81
2021/12/18 05:32:25;;;;;;;1.65;0.68;;;5.90;99.90;;;;;;5038678;28;20036;-82
2021/12/18 05:34:51;;;;;;;2.33;0.90;;;5.90;99.90;;;;;;5044035;28;20026;-81
2021/12/18 05:39:51;;;;;;;2.03;0.82;;;6.10;99.90;;;;;;5037164;28;20037;-81
2021/12/18 05:42:16;;;;;;;0.90;0.40;;;6.00;99.90;;;;;;5035275;28;20029;-81
2021/12/18 05:44:42;;;;;;;1.20;0.55;;;5.90;99.90;;;;;;5044980;28;20041;-83
2021/12/18 05:47:14;;;;;;;0.38;0.32;;;5.90;99.90;;;;;;5035274;28;20021;-81
2021/12/18 05:49:40;;;;;;;0.30;0.30;;;5.90;99.90;;;;;;5038549;28;20041;-81
2021/12/18 05:52:07;;;;;;;1.55;0.73;;;5.90;99.90;;;;;;5042739;28;20368;-81
2021/12/18 05:54:35;;;;;;;1.73;0.47;;;5.90;99.90;;;;;;5046197;28;20087;-82
2021/12/18 05:57:09;;;;;;;0.82;0.52;;;5.80;99.90;;;;;;5043295;28;20030;-81
2021/12/18 05:59:36;;;;;;;0.35;0.30;;;5.80;99.90;;;;;;5034535;28;20548;-81
2021/12/18 06:02:05;;;;;;;1.10;0.32;;;5.80;99.90;;;;;;5035357;28;20388;-82
2021/12/18 06:04:31;;;;;;;0.40;0.30;;;5.80;99.90;;;;;;5044649;28;20021;-82
2021/12/18 06:07:03;;;;;;;1.05;0.60;;;5.80;99.90;;;;;;5029851;28;20077;-81
2021/12/18 06:09:35;;;;;;;0.60;0.40;;;5.80;99.90;;;;;;5034429;28;20496;-83
2021/12/18 06:12:01;;;;;;;0.10;0.10;;;5.90;99.90;;;;;;5047698;28;20429;-81
2021/12/18 06:14:27;;;;;;;1.13;0.35;;;5.80;99.90;;;;;;5041049;28;20029;-82
2021/12/18 06:16:53;;;;;;;0.55;0.40;;;5.80;99.90;;;;;;5042920;28;20109;-81
2021/12/18 06:19:21;;;;;;;1.10;0.40;;;5.80;99.90;;;;;;5040684;28;20575;-82
2021/12/18 06:21:47;;;;;;;0.22;0.20;;;5.80;99.90;;;;;;5036616;28;20040;-83
2021/12/18 06:24:14;;;;;;;0.98;0.40;;;5.80;99.90;;;;;;5035286;28;20032;-81
2021/12/18 06:26:44;;;;;;;0.85;0.65;;;5.80;99.90;;;;;;5036503;28;20193;-82
2021/12/18 06:29:10;;;;;;;0.95;0.55;;;5.80;99.90;;;;;;5048487;28;20533;-82
2021/12/18 06:31:39;;;;;;;1.85;0.43;;;5.90;99.90;;;;;;5037796;28;20117;-81
2021/12/18 06:34:06;;;;;;;0.82;0.40;;;5.80;99.90;;;;;;5033204;28;20060;-82
2021/12/18 06:36:31;;;;;;;1.10;0.63;;;5.80;99.90;;;;;;5036678;28;20046;-83
2021/12/18 06:38:57;;;;;;;1.35;0.55;;;5.80;99.90;;;;;;5046917;28;20033;-85
2021/12/18 06:41:23;;;;;;;0.93;0.57;;;5.70;99.90;;;;;;5041080;28;20064;-82
2021/12/18 06:43:49;;;;;;;0.50;0.20;;;5.80;99.90;;;;;;5033932;28;20030;-84
2021/12/18 06:46:15;;;;;;;0.50;0.32;;;5.80;99.90;;;;;;5032566;28;20453;-83
2021/12/18 06:48:41;;;;;;;1.08;0.95;;;5.70;99.90;;;;;;5035221;28;20120;-82
2021/12/18 06:51:08;;;;;;;1.27;0.35;;;5.80;99.90;;;;;;5037585;28;20069;-82
2021/12/18 06:53:36;;;;;;;1.13;0.65;;;5.80;99.90;;;;;;5040467;28;20048;-83
2021/12/18 06:56:03;;;;;;;1.20;0.35;;;5.80;99.90;;;;;;5032808;28;20037;-83
2021/12/18 06:58:30;;;;;;;1.98;0.63;;;5.80;99.90;;;;;;5031665;28;20041;-84
2021/12/18 07:00:55;;;;;;;0.63;0.40;;;5.80;99.90;;;;;;5026294;28;20056;-84
2021/12/18 07:03:21;;;;;;;1.10;0.45;;;5.80;99.90;;;;;;5041571;28;20433;-82
2021/12/18 07:05:50;;;;;;;1.92;0.60;;;5.80;99.90;;;;;;5041465;28;20040;-82
2021/12/18 07:08:16;;;;;;;1.80;0.60;;;5.80;99.90;;;;;;5024263;28;20043;-82
2021/12/18 07:10:45;;;;;;;1.33;0.63;;;5.80;99.90;;;;;;5031295;28;20396;-81
2021/12/18 07:13:11;;;;;;;0.90;0.50;;;5.80;99.90;;;;;;5030818;28;20037;-81
2021/12/18 07:15:38;;;;;;;1.15;0.63;;;5.80;99.90;;;;;;5036271;28;20115;-82
2021/12/18 07:18:04;;;;;;;2.50;0.70;;;5.70;99.90;;;;;;5038809;28;20494;-82
2021/12/18 07:20:31;;;;;;;1.05;0.38;;;5.80;99.90;;;;;;5027654;28;20040;-82
2021/12/18 07:22:57;;;;;;;2.17;0.70;;;5.80;99.90;;;;;;5032706;28;20566;-83
2021/12/18 07:25:23;;;;;;;1.15;0.60;;;5.80;99.90;;;;;;5024038;28;20280;-83
2021/12/18 07:27:48;;;;;;;1.40;0.68;;;5.80;99.90;;;;;;5037562;28;20103;-85
2021/12/18 07:30:15;;;;;;;2.80;1.02;;;5.80;99.90;;;;;;5038198;28;20037;-83
2021/12/18 07:32:41;;;;;;;1.50;0.88;;;5.90;99.90;;;;;;5030863;28;20038;-83
2021/12/18 07:35:08;;;;;;;1.67;0.55;;;5.80;99.90;;;;;;5040615;28;20039;-83
2021/12/18 07:37:34;;;;;;;0.40;0.20;;;5.80;99.90;;;;;;5033831;28;20035;-83
2021/12/18 07:39:59;;;;;;;1.05;0.40;;;5.80;99.90;;;;;;5036549;28;20097;-82
2021/12/18 07:42:25;;;;;;;0.98;0.50;;;5.80;99.90;;;;;;5041033;28;20052;-82
2021/12/18 07:44:53;;;;;;;1.10;0.30;;;5.70;99.90;;;;;;5030954;28;20040;-82
2021/12/18 07:47:19;;;;;;;0.90;0.50;;;5.70;99.90;;;;;;5037640;28;20036;-83
2021/12/18 07:49:46;;;;;;;0.68;0.30;;;5.80;99.90;;;;;;5034366;28;20502;-82
2021/12/18 07:52:12;;;;;;;0.32;0.20;;;5.80;99.90;;;;;;5030937;28;20037;-82
2021/12/18 07:54:56;;;;;;;0.65;0.30;;;5.80;99.90;;;;;;5014141;28;20044;-84
2021/12/18 07:57:23;;;;;;;0.13;0.13;;;5.80;99.90;;;;;;5009262;28;20108;-81
2021/12/18 07:59:49;;;;;;;0.57;0.30;;;5.80;99.90;;;;;;5044356;28;20041;-83
2021/12/18 08:02:14;;;;;;;0.30;0.20;;;5.70;99.90;;;;;;5030612;28;20159;-82
2021/12/18 08:04:43;;;;;;;1.08;0.60;;;5.70;99.90;;;;;;5044613;28;20515;-81
2021/12/18 08:07:09;;;;;;;0.30;0.30;;;5.80;99.90;;;;;;5034552;28;20029;-81
2021/12/18 08:09:38;;;;;;;1.65;0.38;;;5.70;99.90;;;;;;5042631;28;20350;-81
2021/12/18 08:12:04;;;;;;;0.30;0.20;;;5.80;99.90;;;;;;5030872;28;20056;-83
2021/12/18 08:14:32;;;;;;;0.82;0.40;;;5.80;99.90;;;;;;5037918;28;20132;-81
2021/12/18 08:16:57;;;;;;;0.55;0.30;;;5.70;99.90;;;;;;5043788;28;20025;-83
2021/12/18 08:19:26;;;;;;;1.33;0.43;;;5.70;99.90;;;;;;5045072;28;20376;-82
2021/12/18 08:21:52;;;;;;;0.30;0.28;;;5.80;99.90;;;;;;5035017;28;20080;-82
2021/12/18 08:24:17;;;;;;;0.45;0.20;;;5.70;99.90;;;;;;5043200;28;20076;-83
2021/12/18 08:26:43;;;;;;;0.55;0.30;;;5.70;99.90;;;;;;5032557;28;20112;-81
2021/12/18 08:29:09;;;;;;;0.68;0.40;;;5.80;99.90;;;;;;5045520;28;20591;-80
2021/12/18 08:31:34;;;;;;;2.05;0.73;;;5.70;99.90;;;;;;5043042;28;20519;-81
2021/12/18 08:34:00;;;;;;;0.90;0.45;;;5.70;99.90;;;;;;5045123;28;20525;-81
2021/12/18 08:36:26;;;;;;;0.30;0.20;;;5.80;99.90;;;;;;5035458;28;20026;-82
2021/12/18 08:38:51;;;;;;;0.65;0.32;;;5.80;99.90;;;;;;5039291;28;20488;-81
2021/12/18 08:41:19;;;;;;;0.50;0.35;;;5.80;99.90;;;;;;5034382;28;20037;-82
2021/12/18 08:43:45;;;;;;;;;;;6.00;99.90;;;;;;5039194;28;20033;-81
2021/12/18 08:46:10;;;;;;;0.50;0.40;;;5.90;99.90;;;;;;5040376;28;20278;-81
2021/12/18 08:48:43;;;;;;;0.40;0.40;;;5.90;99.90;;;;;;5033381;28;20578;-82
2021/12/18 08:51:09;;;;;;;0.95;0.38;;;5.90;99.90;;;;;;5033884;28;20118;-81
2021/12/18 08:53:37;;;;;;;0.80;0.40;;;5.90;99.90;;;;;;5033457;28;20498;-81
2021/12/18 08:56:03;;;;;;;0.40;0.20;;;5.90;99.90;;;;;;5032795;28;20030;-82
2021/12/18 08:58:29;;;;;;;0.63;0.38;;;5.90;99.90;;;;;;5009853;28;20062;-82
2021/12/18 09:01:28;;;;;;;;;;;;;;;;;;;;;
2021/12/18 09:03:54;;;;;;;0.52;0.40;;;5.90;99.90;;;;;;5031641;28;20625;-82
2021/12/18 09:06:26;;;;;;;0.40;0.20;;;6.00;99.90;;;;;;4970714;28;20418;-81
2021/12/18 09:09:15;;;;;;;1.55;0.50;;;5.90;99.90;;;;;;5008227;28;20159;-82
2021/12/18 09:11:44;;;;;;;0.30;0.20;;;5.90;99.90;;;;;;5034970;28;20037;-81
2021/12/18 09:14:20;;;;;;;0.98;0.38;;;6.00;99.90;;;;;;5042050;28;20712;-82
2021/12/18 09:16:46;;;;;;;2.20;0.27;;;6.00;99.90;;;;;;5025369;28;20394;-81
2021/12/18 09:19:15;;;;;;;0.55;0.30;;;5.90;99.90;;;;;;5016053;28;20271;-80
2021/12/18 09:21:46;;;;;;;0.90;0.43;;;6.00;99.90;;;;;;5035362;28;20500;-82
2021/12/18 09:24:14;;;;;;;0.73;0.45;;;5.90;99.90;;;;;;5041942;28;20029;-81
2021/12/18 09:26:40;;;;;;;0.52;0.30;;;5.90;99.90;;;;;;5041505;28;20045;-82
2021/12/18 09:29:08;;;;;;;0.20;0.20;;;6.00;99.90;;;;;;5026810;28;20511;-81
2021/12/18 09:31:37;;;;;;;0.57;0.43;;;6.00;99.90;;;;;;5033385;28;20086;-81
2021/12/18 09:34:05;;;;;;;1.15;0.63;;;6.00;99.90;;;;;;5035863;28;20036;-81
2021/12/18 09:36:36;;;;;;;0.40;0.28;;;6.00;99.90;;;;;;5038876;28;20055;-82
2021/12/18 09:39:08;;;;;;;1.90;0.45;;;6.00;99.90;;;;;;5043226;28;20037;-81
2021/12/18 09:41:37;;;;;;;0.55;0.28;;;6.00;99.90;;;;;;5034220;28;20033;-81
2021/12/18 09:44:06;;;;;;;2.13;1.08;;;6.10;99.90;;;;;;5046897;28;20036;-81
2021/12/18 09:46:37;;;;;;;0.85;0.60;;;6.10;99.90;;;;;;5044912;28;20043;-81
2021/12/18 09:49:05;;;;;;;1.13;0.63;;;6.10;99.90;;;;;;5039909;28;20510;-81
2021/12/18 09:51:38;;;;;;;0.85;0.60;;;6.10;99.90;;;;;;5040992;28;20034;-81
2021/12/18 09:54:07;;;;;;;0.77;0.40;;;6.10;99.90;;;;;;5046073;28;20037;-82
2021/12/18 09:56:33;;;;;;;0.98;0.40;;;6.20;99.90;;;;;;5041245;28;20033;-82
2021/12/18 09:59:03;;;;;;;2.75;0.57;;;6.10;99.90;;;;;;5046252;28;20029;-81
2021/12/18 10:01:29;;;;;;;0.68;0.28;;;6.20;99.90;;;;;;5046054;28;20482;-82
2021/12/18 10:03:58;;;;;;;0.80;0.40;;;6.10;99.90;;;;;;5046353;28;20140;-82
2021/12/18 10:06:51;;;;;;;1.25;0.55;;;6.20;99.90;;;;;;5036112;28;20136;-81
2021/12/18 10:09:25;;;;;;;0.73;0.22;;;6.20;99.90;;;;;;5041623;28;20033;-82
2021/12/18 10:11:57;;;;;;;0.50;0.35;;;6.20;99.90;;;;;;5036227;28;20036;-82
2021/12/18 10:14:38;;;;;;;0.77;0.40;;;6.30;99.90;;;;;;5048335;28;20044;-82
2021/12/18 10:17:16;;;;;;;0.55;0.20;;;6.30;99.90;;;;;;5048410;28;20037;-81
2021/12/18 10:19:42;;;;;;;3.50;1.13;;;6.30;99.90;;;;;;5037207;28;20499;-83
2021/12/18 10:22:13;;;;;;;2.53;0.60;;;6.30;99.90;;;;;;5032096;28;20069;-82
2021/12/18 10:24:43;;;;;;;0.38;0.28;;;6.30;99.90;;;;;;5037269;28;20459;-82
2021/12/18 10:27:24;;;;;;;1.75;0.30;;;6.30;99.90;;;;;;5040593;28;20079;-82
2021/12/18 10:30:13;;;;;;;0.57;0.38;;;6.40;99.90;;;;;;5045168;28;20713;-82
2021/12/18 10:32:39;;;;;;;1.48;0.30;;;6.40;99.90;;;;;;5038447;28;20484;-82
2021/12/18 10:35:05;;;;;;;0.65;0.43;;;6.30;99.90;;;;;;5031352;28;20039;-81
2021/12/18 10:37:34;;;;;;;0.55;0.25;;;6.30;99.90;;;;;;5044737;28;20031;-81
2021/12/18 10:39:59;;;;;;;0.57;0.30;;;6.30;99.90;;;;;;5045558;28;20022;-81
2021/12/18 10:42:33;;;;;;;0.75;0.38;;;6.30;99.90;;;;;;5039816;28;20036;-81
2021/12/18 10:45:19;;;;;;;0.10;0.10;;;6.30;99.90;;;;;;5040165;28;20026;-81
2021/12/18 10:48:08;;;;;;;0.80;0.43;;;6.30;99.90;;;;;;5036164;28;20056;-81
2021/12/18 10:50:42;;;;;;;0.77;0.50;;;6.40;99.90;;;;;;5036231;28;20190;-80
2021/12/18 10:53:16;;;;;;;0.88;0.43;;;6.40;99.90;;;;;;5043938;28;20048;-82
2021/12/18 10:56:04;;;;;;;0.88;0.32;;;6.50;99.90;;;;;;5024227;28;20477;-81
2021/12/18 10:58:38;;;;;;;0.43;0.38;;;6.50;99.90;;;;;;5043541;28;20091;-81
2021/12/18 11:01:13;;;;;;;0.57;0.20;;;6.50;99.90;;;;;;5037516;28;20037;-81
2021/12/18 11:03:49;;;;;;;0.52;0.17;;;6.50;99.90;;;;;;5035421;28;20038;-81
2021/12/18 11:06:24;;;;;;;0.90;0.52;;;6.50;99.90;;;;;;5039785;28;20032;-81
2021/12/18 11:09:00;;;;;;;0.75;0.50;;;6.50;99.90;;;;;;5033799;28;20121;-82
2021/12/18 11:14:03;;;;;;;0.20;0.20;;;6.50;99.90;;;;;;5035628;28;20037;-81
2021/12/18 11:16:29;;;;;;;;;;;6.50;99.90;;;;;;5037572;28;20090;-83
2021/12/18 11:18:55;;;;;;;0.90;0.68;;;6.50;99.90;;;;;;5050776;28;19917;-81
2021/12/18 11:21:27;;;;;;;3.25;0.63;;;6.60;99.90;;;;;;5025456;28;20450;-81
2021/12/18 11:24:06;;;;;;;2.30;0.52;;;6.50;99.90;;;;;;5034488;28;20109;-81
2021/12/18 11:26:41;;;;;;;1.23;0.28;;;6.50;99.90;;;;;;5047194;28;20044;-81
2021/12/18 11:29:14;;;;;;;1.95;0.85;;;6.50;99.90;;;;;;5043685;28;20048;-81
2021/12/18 11:31:45;;;;;;;0.63;0.30;;;6.50;99.90;;;;;;5030437;28;20582;-80
2021/12/18 11:34:11;;;;;;;0.30;0.17;;;6.50;99.90;;;;;;5037016;28;20044;-82
2021/12/18 11:36:44;;;;;;;2.58;0.38;;;6.50;99.90;;;;;;5037065;28;20087;-82
2021/12/18 11:39:17;;;;;;;0.52;0.25;;;6.50;99.90;;;;;;5044860;28;20060;-81
2021/12/18 11:41:48;;;;;;;0.38;0.20;;;6.50;99.90;;;;;;5035260;28;20033;-81
2021/12/18 11:44:30;;;;;;;0.90;0.35;;;6.50;99.90;;;;;;5037287;28;20040;-81
2021/12/18 11:46:57;;;;;;;0.88;0.30;;;6.50;99.90;;;;;;5025922;28;20036;-82
2021/12/18 11:49:26;;;;;;;0.43;0.30;;;6.50;99.90;;;;;;5043500;28;20037;-82
2021/12/18 11:52:01;;;;;;;0.43;0.25;;;6.50;99.90;;;;;;5039588;28;20495;-81
2021/12/18 11:54:43;;;;;;;0.52;0.40;;;6.70;99.90;;;;;;5035811;28;20029;-81
2021/12/18 11:57:09;;;;;;;0.57;0.40;;;6.60;99.90;;;;;;5029317;28;20230;-81
2021/12/18 11:59:43;;;;;;;0.47;0.40;;;6.60;99.90;;;;;;5040756;28;20037;-82
2021/12/18 12:02:11;;;;;;;0.70;0.43;;;6.60;99.90;;;;;;5040471;28;20052;-81
2021/12/18 12:04:57;;;;;;;0.93;0.30;;;6.60;99.90;;;;;;5046335;28;20043;-82
2021/12/18 12:07:24;;;;;;;0.45;0.25;;;6.70;99.90;;;;;;5041570;28;20576;-81
2021/12/18 12:10:20;;;;;;;0.85;0.38;;;6.70;99.90;;;;;;5033990;28;20421;-81
2021/12/18 12:12:54;;;;;;;0.75;0.20;;;6.60;99.90;;;;;;5050698;28;20341;-81
2021/12/18 12:15:27;;;;;;;0.50;0.30;;;6.60;99.90;;;;;;5026595;28;20037;-81
2021/12/18 12:18:04;;;;;;;0.30;0.20;;;6.60;99.90;;;;;;5032692;28;20412;-81
2021/12/18 12:20:46;;;;;;;0.57;0.40;;;6.60;99.90;;;;;;5044334;28;20387;-82
2021/12/18 12:23:13;;;;;;;0.20;0.20;;;6.60;99.90;;;;;;5042388;28;20025;-81
2021/12/18 12:25:50;;;;;;;0.20;0.10;;;6.70;99.90;;;;;;5034175;28;20033;-81
2021/12/18 12:28:24;;;;;;;0.10;0.10;;;6.70;99.90;;;;;;5038234;28;20384;-83
2021/12/18 12:31:09;;;;;;;0.95;0.30;;;6.70;99.90;;;;;;5035408;28;20540;-82
2021/12/18 12:33:37;;;;;;;0.17;0.10;;;6.70;99.90;;;;;;5044676;28;20036;-82
2021/12/18 12:36:10;;;;;;;0.40;0.30;;;6.70;99.90;;;;;;5033226;28;20033;-82
2021/12/18 12:38:57;;;;;;;1.67;0.22;;;6.70;99.90;;;;;;5035509;28;20476;-81
2021/12/18 12:41:26;;;;;;;;;;;6.70;99.90;;;;;;5039736;28;20427;-82
2021/12/18 12:43:53;;;;;;;0.30;0.20;;;6.70;99.90;;;;;;5051611;28;19909;-82
2021/12/18 12:46:20;;;;;;;0.23;0.20;;;6.70;99.90;;;;;;5032312;28;20041;-81
2021/12/18 12:49:00;;;;;;;0.20;0.10;;;6.60;99.90;;;;;;5041667;28;20280;-82
2021/12/18 12:51:47;;;;;;;0.38;0.25;;;6.70;99.90;;;;;;5033603;28;20272;-81
2021/12/18 12:54:39;;;;;;;0.35;0.28;;;6.70;99.90;;;;;;5034302;28;20033;-82
2021/12/18 12:57:22;;;;;;;0.22;0.17;;;6.70;99.90;;;;;;5032432;28;20037;-81
2021/12/18 12:59:53;;;;;;;0.68;0.30;;;6.70;99.90;;;;;;5051693;28;20427;-80
2021/12/18 13:02:20;;;;;;;0.60;0.40;;;6.70;99.90;;;;;;5029762;28;20467;-82
2021/12/18 13:04:47;;;;;;;1.08;0.32;;;6.70;99.90;;;;;;5035322;28;20037;-81
2021/12/18 13:07:13;;;;;;;0.43;0.20;;;6.70;99.90;;;;;;5043252;28;20136;-82
2021/12/18 13:09:46;;;;;;;0.73;0.50;;;6.70;99.90;;;;;;5053232;28;20143;-82
2021/12/18 13:12:12;;;;;;;0.30;0.10;;;6.70;99.90;;;;;;5042774;28;20044;-82
2021/12/18 13:14:40;;;;;;;0.32;0.30;;;6.70;99.90;;;;;;5038395;28;20033;-82
2021/12/18 13:17:19;;;;;;;0.55;0.20;;;6.70;99.90;;;;;;5035931;28;20045;-81
2021/12/18 13:20:04;;;;;;;0.60;0.22;;;6.70;99.90;;;;;;5042444;28;20053;-80
2021/12/18 13:22:33;;;;;;;0.60;0.30;;;6.80;99.90;;;;;;5035591;28;20038;-81
2021/12/18 13:25:13;;;;;;;0.47;0.35;;;6.80;99.90;;;;;;5036966;28;20033;-81
2021/12/18 13:27:42;;;;;;;0.80;0.30;;;6.80;99.90;;;;;;5030789;28;20037;-81
2021/12/18 13:30:17;;;;;;;0.77;0.43;;;6.80;99.90;;;;;;5047976;28;20036;-80
2021/12/18 13:32:59;;;;;;;0.68;0.20;;;6.80;99.90;;;;;;5031001;28;20038;-80
2021/12/18 13:35:28;;;;;;;0.30;0.20;;;6.80;99.90;;;;;;5032358;28;20053;-81
2021/12/18 13:38:12;;;;;;;0.60;0.40;;;6.80;99.90;;;;;;5036573;28;20802;-81
2021/12/18 13:40:50;;;;;;;0.82;0.52;;;6.80;99.90;;;;;;5034966;28;20084;-81
2021/12/18 13:43:20;;;;;;;0.20;0.13;;;6.80;99.90;;;;;;5019119;28;20021;-80
2021/12/18 13:45:48;;;;;;;0.47;0.15;;;6.80;99.90;;;;;;5052283;28;20055;-80
2021/12/18 13:48:14;;;;;;;0.13;0.13;;;6.80;99.90;;;;;;5041938;28;20084;-80
2021/12/18 13:50:40;;;;;;;0.20;0.20;;;6.80;99.90;;;;;;5033515;28;20032;-80
2021/12/18 13:53:06;;;;;;;0.90;0.40;;;6.80;99.90;;;;;;5043794;28;20480;-81
2021/12/18 13:55:39;;;;;;;0.10;0.10;;;6.80;99.90;;;;;;5044055;28;20033;-81
2021/12/18 13:58:17;;;;;;;3.05;0.40;;;6.80;99.90;;;;;;5029264;28;20041;-80
2021/12/18 14:01:01;;;;;;;0.17;0.10;;;6.80;99.90;;;;;;5030506;28;20369;-81
2021/12/18 14:03:32;;;;;;;0.40;0.30;;;6.80;99.90;;;;;;5046249;28;20483;-81
2021/12/18 14:06:06;;;;;;;0.50;0.30;;;6.80;99.90;;;;;;5045953;28;20128;-81